sensor_id;sensor_type;location;lat;lon;timestamp;temperature;humidity
79489;SHT31;68949;53.176;18.088;2023-08-01T00:00:43;19.19;70.89
79489;SHT31;68949;53.176;18.088;2023-08-01T00:03:25;19.18;70.89
79489;SHT31;68949;53.176;18.088;2023-08-01T00:05:52;19.19;70.88
79489;SHT31;68949;53.176;18.088;2023-08-01T00:08:21;19.18;70.92
79489;SHT31;68949;53.176;18.088;2023-08-01T00:10:48;19.18;70.96
79489;SHT31;68949;53.176;18.088;2023-08-01T00:13:14;19.17;71.00
79489;SHT31;68949;53.176;18.088;2023-08-01T00:15:41;19.15;71.04
79489;SHT31;68949;53.176;18.088;2023-08-01T00:18:08;19.11;71.05
79489;SHT31;68949;53.176;18.088;2023-08-01T00:20:34;19.10;71.10
79489;SHT31;68949;53.176;18.088;2023-08-01T00:23:01;19.10;71.00
79489;SHT31;68949;53.176;18.088;2023-08-01T00:25:28;19.09;71.08
79489;SHT31;68949;53.176;18.088;2023-08-01T00:27:54;19.05;71.17
79489;SHT31;68949;53.176;18.088;2023-08-01T00:30:21;19.01;71.27
79489;SHT31;68949;53.176;18.088;2023-08-01T00:32:47;18.97;71.40
79489;SHT31;68949;53.176;18.088;2023-08-01T00:35:14;18.93;71.52
79489;SHT31;68949;53.176;18.088;2023-08-01T00:37:42;18.88;71.58
79489;SHT31;68949;53.176;18.088;2023-08-01T00:40:09;18.84;71.69
79489;SHT31;68949;53.176;18.088;2023-08-01T00:42:36;18.80;71.76
79489;SHT31;68949;53.176;18.088;2023-08-01T00:45:05;18.78;71.86
79489;SHT31;68949;53.176;18.088;2023-08-01T00:47:32;18.78;71.82
79489;SHT31;68949;53.176;18.088;2023-08-01T00:50:00;18.76;71.93
79489;SHT31;68949;53.176;18.088;2023-08-01T00:52:28;18.77;71.91
79489;SHT31;68949;53.176;18.088;2023-08-01T00:54:55;18.78;71.92
79489;SHT31;68949;53.176;18.088;2023-08-01T00:57:22;18.82;71.88
79489;SHT31;68949;53.176;18.088;2023-08-01T00:59:48;18.84;71.95
79489;SHT31;68949;53.176;18.088;2023-08-01T01:02:15;18.84;71.96
79489;SHT31;68949;53.176;18.088;2023-08-01T01:04:42;18.85;71.89
79489;SHT31;68949;53.176;18.088;2023-08-01T01:07:09;18.86;71.89
79489;SHT31;68949;53.176;18.088;2023-08-01T01:09:35;18.86;71.86
79489;SHT31;68949;53.176;18.088;2023-08-01T01:12:02;18.87;71.78
79489;SHT31;68949;53.176;18.088;2023-08-01T01:14:30;18.88;71.82
79489;SHT31;68949;53.176;18.088;2023-08-01T01:16:57;18.88;71.89
79489;SHT31;68949;53.176;18.088;2023-08-01T01:19:23;18.86;71.87
79489;SHT31;68949;53.176;18.088;2023-08-01T01:21:50;18.84;71.90
79489;SHT31;68949;53.176;18.088;2023-08-01T01:24:17;18.81;72.02
79489;SHT31;68949;53.176;18.088;2023-08-01T01:26:47;18.81;72.05
79489;SHT31;68949;53.176;18.088;2023-08-01T01:29:15;18.80;71.99
79489;SHT31;68949;53.176;18.088;2023-08-01T01:31:42;18.80;72.07
79489;SHT31;68949;53.176;18.088;2023-08-01T01:34:09;18.78;72.06
79489;SHT31;68949;53.176;18.088;2023-08-01T01:36:36;18.76;72.20
79489;SHT31;68949;53.176;18.088;2023-08-01T01:39:03;18.77;72.20
79489;SHT31;68949;53.176;18.088;2023-08-01T01:41:29;18.76;72.20
79489;SHT31;68949;53.176;18.088;2023-08-01T01:43:56;18.78;72.19
79489;SHT31;68949;53.176;18.088;2023-08-01T01:46:23;18.78;72.16
79489;SHT31;68949;53.176;18.088;2023-08-01T01:48:50;18.79;72.17
79489;SHT31;68949;53.176;18.088;2023-08-01T01:51:16;18.81;72.09
79489;SHT31;68949;53.176;18.088;2023-08-01T01:53:43;18.83;72.11
79489;SHT31;68949;53.176;18.088;2023-08-01T01:56:10;18.82;72.11
79489;SHT31;68949;53.176;18.088;2023-08-01T01:58:37;18.84;72.19
79489;SHT31;68949;53.176;18.088;2023-08-01T02:01:06;18.83;72.16
79489;SHT31;68949;53.176;18.088;2023-08-01T02:03:32;18.84;72.16
79489;SHT31;68949;53.176;18.088;2023-08-01T02:05:59;18.84;72.21
79489;SHT31;68949;53.176;18.088;2023-08-01T02:08:25;18.85;72.16
79489;SHT31;68949;53.176;18.088;2023-08-01T02:10:52;18.86;72.25
79489;SHT31;68949;53.176;18.088;2023-08-01T02:13:19;18.83;72.20
79489;SHT31;68949;53.176;18.088;2023-08-01T02:15:45;18.83;72.27
79489;SHT31;68949;53.176;18.088;2023-08-01T02:18:12;18.82;72.30
79489;SHT31;68949;53.176;18.088;2023-08-01T02:20:39;18.82;72.26
79489;SHT31;68949;53.176;18.088;2023-08-01T02:23:05;18.81;72.28
79489;SHT31;68949;53.176;18.088;2023-08-01T02:25:32;18.78;72.30
79489;SHT31;68949;53.176;18.088;2023-08-01T02:27:59;18.77;72.34
79489;SHT31;68949;53.176;18.088;2023-08-01T02:30:25;18.76;72.36
79489;SHT31;68949;53.176;18.088;2023-08-01T02:32:52;18.73;72.48
79489;SHT31;68949;53.176;18.088;2023-08-01T02:35:19;18.70;72.54
79489;SHT31;68949;53.176;18.088;2023-08-01T02:37:45;18.70;72.52
79489;SHT31;68949;53.176;18.088;2023-08-01T02:40:12;18.70;72.50
79489;SHT31;68949;53.176;18.088;2023-08-01T02:42:39;18.71;72.53
79489;SHT31;68949;53.176;18.088;2023-08-01T02:45:05;18.70;72.55
79489;SHT31;68949;53.176;18.088;2023-08-01T02:47:32;18.70;72.59
79489;SHT31;68949;53.176;18.088;2023-08-01T02:49:59;18.68;72.60
79489;SHT31;68949;53.176;18.088;2023-08-01T02:52:26;18.69;72.58
79489;SHT31;68949;53.176;18.088;2023-08-01T02:54:52;18.70;72.63
79489;SHT31;68949;53.176;18.088;2023-08-01T02:57:19;18.68;72.70
79489;SHT31;68949;53.176;18.088;2023-08-01T02:59:45;18.70;72.69
79489;SHT31;68949;53.176;18.088;2023-08-01T03:02:13;18.72;72.68
79489;SHT31;68949;53.176;18.088;2023-08-01T03:04:40;18.71;72.70
79489;SHT31;68949;53.176;18.088;2023-08-01T03:07:06;18.72;72.76
79489;SHT31;68949;53.176;18.088;2023-08-01T03:09:33;18.73;72.70
79489;SHT31;68949;53.176;18.088;2023-08-01T03:11:59;18.71;72.73
79489;SHT31;68949;53.176;18.088;2023-08-01T03:14:26;18.70;72.83
79489;SHT31;68949;53.176;18.088;2023-08-01T03:16:53;18.68;72.85
79489;SHT31;68949;53.176;18.088;2023-08-01T03:19:19;18.66;72.87
79489;SHT31;68949;53.176;18.088;2023-08-01T03:21:46;18.65;72.95
79489;SHT31;68949;53.176;18.088;2023-08-01T03:24:13;18.61;73.07
79489;SHT31;68949;53.176;18.088;2023-08-01T03:26:39;18.58;73.19
79489;SHT31;68949;53.176;18.088;2023-08-01T03:29:06;18.57;73.23
79489;SHT31;68949;53.176;18.088;2023-08-01T03:31:32;18.57;73.33
79489;SHT31;68949;53.176;18.088;2023-08-01T03:33:59;18.60;73.33
79489;SHT31;68949;53.176;18.088;2023-08-01T03:36:26;18.62;73.35
79489;SHT31;68949;53.176;18.088;2023-08-01T03:38:52;18.62;73.36
79489;SHT31;68949;53.176;18.088;2023-08-01T03:41:19;18.63;73.42
79489;SHT31;68949;53.176;18.088;2023-08-01T03:43:46;18.66;73.55
79489;SHT31;68949;53.176;18.088;2023-08-01T03:46:12;18.70;73.65
79489;SHT31;68949;53.176;18.088;2023-08-01T03:48:39;18.72;73.61
79489;SHT31;68949;53.176;18.088;2023-08-01T03:51:05;18.70;73.69
79489;SHT31;68949;53.176;18.088;2023-08-01T03:53:33;18.68;73.89
79489;SHT31;68949;53.176;18.088;2023-08-01T03:55:59;18.70;74.15
79489;SHT31;68949;53.176;18.088;2023-08-01T03:58:26;18.72;74.25
79489;SHT31;68949;53.176;18.088;2023-08-01T04:00:53;18.73;74.21
79489;SHT31;68949;53.176;18.088;2023-08-01T04:03:20;18.73;74.33
79489;SHT31;68949;53.176;18.088;2023-08-01T04:05:47;18.74;74.30
79489;SHT31;68949;53.176;18.088;2023-08-01T04:08:14;18.73;74.52
79489;SHT31;68949;53.176;18.088;2023-08-01T04:10:41;18.70;74.81
79489;SHT31;68949;53.176;18.088;2023-08-01T04:13:07;18.68;74.86
79489;SHT31;68949;53.176;18.088;2023-08-01T04:15:34;18.66;75.13
79489;SHT31;68949;53.176;18.088;2023-08-01T04:18:01;18.65;75.28
79489;SHT31;68949;53.176;18.088;2023-08-01T04:20:27;18.64;75.38
79489;SHT31;68949;53.176;18.088;2023-08-01T04:22:54;18.63;75.46
79489;SHT31;68949;53.176;18.088;2023-08-01T04:25:21;18.62;75.54
79489;SHT31;68949;53.176;18.088;2023-08-01T04:27:50;18.60;75.58
79489;SHT31;68949;53.176;18.088;2023-08-01T04:30:17;18.56;75.89
79489;SHT31;68949;53.176;18.088;2023-08-01T04:32:43;18.58;75.95
79489;SHT31;68949;53.176;18.088;2023-08-01T04:35:10;18.57;76.11
79489;SHT31;68949;53.176;18.088;2023-08-01T04:37:37;18.57;76.18
79489;SHT31;68949;53.176;18.088;2023-08-01T04:40:04;18.56;76.30
79489;SHT31;68949;53.176;18.088;2023-08-01T04:42:31;18.56;76.58
79489;SHT31;68949;53.176;18.088;2023-08-01T04:44:58;18.55;76.67
79489;SHT31;68949;53.176;18.088;2023-08-01T04:47:25;18.53;76.78
79489;SHT31;68949;53.176;18.088;2023-08-01T04:49:51;18.50;76.94
79489;SHT31;68949;53.176;18.088;2023-08-01T04:52:18;18.48;77.12
79489;SHT31;68949;53.176;18.088;2023-08-01T04:54:44;18.42;77.34
79489;SHT31;68949;53.176;18.088;2023-08-01T04:57:11;18.40;77.52
79489;SHT31;68949;53.176;18.088;2023-08-01T04:59:38;18.38;77.71
79489;SHT31;68949;53.176;18.088;2023-08-01T05:02:04;18.33;77.85
79489;SHT31;68949;53.176;18.088;2023-08-01T05:04:31;18.27;77.95
79489;SHT31;68949;53.176;18.088;2023-08-01T05:06:58;18.25;78.30
79489;SHT31;68949;53.176;18.088;2023-08-01T05:09:25;18.23;78.36
79489;SHT31;68949;53.176;18.088;2023-08-01T05:11:51;18.23;78.55
79489;SHT31;68949;53.176;18.088;2023-08-01T05:14:18;18.21;78.72
79489;SHT31;68949;53.176;18.088;2023-08-01T05:16:44;18.21;78.92
79489;SHT31;68949;53.176;18.088;2023-08-01T05:19:11;18.19;78.99
79489;SHT31;68949;53.176;18.088;2023-08-01T05:21:38;18.15;79.21
79489;SHT31;68949;53.176;18.088;2023-08-01T05:24:05;18.12;79.38
79489;SHT31;68949;53.176;18.088;2023-08-01T05:26:31;18.11;79.55
79489;SHT31;68949;53.176;18.088;2023-08-01T05:28:58;18.10;79.68
79489;SHT31;68949;53.176;18.088;2023-08-01T05:31:24;18.10;79.70
79489;SHT31;68949;53.176;18.088;2023-08-01T05:33:51;18.05;79.83
79489;SHT31;68949;53.176;18.088;2023-08-01T05:36:18;18.06;80.02
79489;SHT31;68949;53.176;18.088;2023-08-01T05:38:44;18.07;80.13
79489;SHT31;68949;53.176;18.088;2023-08-01T05:41:11;18.08;80.19
79489;SHT31;68949;53.176;18.088;2023-08-01T05:43:38;18.08;80.19
79489;SHT31;68949;53.176;18.088;2023-08-01T05:46:04;18.05;80.28
79489;SHT31;68949;53.176;18.088;2023-08-01T05:48:31;18.04;80.40
79489;SHT31;68949;53.176;18.088;2023-08-01T05:50:58;18.05;80.51
79489;SHT31;68949;53.176;18.088;2023-08-01T05:53:25;18.08;80.55
79489;SHT31;68949;53.176;18.088;2023-08-01T05:55:51;18.10;80.55
79489;SHT31;68949;53.176;18.088;2023-08-01T05:58:18;18.14;80.70
79489;SHT31;68949;53.176;18.088;2023-08-01T06:00:45;18.13;80.68
79489;SHT31;68949;53.176;18.088;2023-08-01T06:03:11;18.11;80.72
79489;SHT31;68949;53.176;18.088;2023-08-01T06:05:38;18.12;80.78
79489;SHT31;68949;53.176;18.088;2023-08-01T06:08:06;18.11;80.82
79489;SHT31;68949;53.176;18.088;2023-08-01T06:10:34;18.09;81.00
79489;SHT31;68949;53.176;18.088;2023-08-01T06:13:02;18.10;81.02
79489;SHT31;68949;53.176;18.088;2023-08-01T06:15:29;18.07;81.12
79489;SHT31;68949;53.176;18.088;2023-08-01T06:17:55;18.02;81.25
79489;SHT31;68949;53.176;18.088;2023-08-01T06:20:22;17.98;81.37
79489;SHT31;68949;53.176;18.088;2023-08-01T06:22:49;17.95;81.50
79489;SHT31;68949;53.176;18.088;2023-08-01T06:25:15;17.95;81.61
79489;SHT31;68949;53.176;18.088;2023-08-01T06:27:42;17.92;81.75
79489;SHT31;68949;53.176;18.088;2023-08-01T06:30:09;17.94;81.87
79489;SHT31;68949;53.176;18.088;2023-08-01T06:32:36;17.99;81.91
79489;SHT31;68949;53.176;18.088;2023-08-01T06:35:03;18.02;81.91
79489;SHT31;68949;53.176;18.088;2023-08-01T06:37:30;18.02;81.86
79489;SHT31;68949;53.176;18.088;2023-08-01T06:39:57;18.01;82.00
79489;SHT31;68949;53.176;18.088;2023-08-01T06:42:24;18.02;82.06
79489;SHT31;68949;53.176;18.088;2023-08-01T06:44:51;18.06;82.14
79489;SHT31;68949;53.176;18.088;2023-08-01T06:47:17;18.10;82.12
79489;SHT31;68949;53.176;18.088;2023-08-01T06:49:44;18.14;82.12
79489;SHT31;68949;53.176;18.088;2023-08-01T06:52:11;18.19;82.14
79489;SHT31;68949;53.176;18.088;2023-08-01T06:54:37;18.23;82.15
79489;SHT31;68949;53.176;18.088;2023-08-01T06:57:04;18.29;82.13
79489;SHT31;68949;53.176;18.088;2023-08-01T06:59:35;18.34;82.14
79489;SHT31;68949;53.176;18.088;2023-08-01T07:02:01;18.40;82.12
79489;SHT31;68949;53.176;18.088;2023-08-01T07:04:28;18.46;82.18
79489;SHT31;68949;53.176;18.088;2023-08-01T07:06:55;18.49;82.12
79489;SHT31;68949;53.176;18.088;2023-08-01T07:09:22;18.53;82.08
79489;SHT31;68949;53.176;18.088;2023-08-01T07:11:48;18.59;82.18
79489;SHT31;68949;53.176;18.088;2023-08-01T07:14:15;18.64;82.10
79489;SHT31;68949;53.176;18.088;2023-08-01T07:16:42;18.68;82.01
79489;SHT31;68949;53.176;18.088;2023-08-01T07:19:08;18.70;81.92
79489;SHT31;68949;53.176;18.088;2023-08-01T07:21:36;18.70;81.95
79489;SHT31;68949;53.176;18.088;2023-08-01T07:24:03;18.73;82.04
79489;SHT31;68949;53.176;18.088;2023-08-01T07:26:30;18.82;82.02
79489;SHT31;68949;53.176;18.088;2023-08-01T07:28:57;18.89;81.97
79489;SHT31;68949;53.176;18.088;2023-08-01T07:31:24;18.98;82.03
79489;SHT31;68949;53.176;18.088;2023-08-01T07:33:50;19.13;81.98
79489;SHT31;68949;53.176;18.088;2023-08-01T07:36:17;19.23;81.85
79489;SHT31;68949;53.176;18.088;2023-08-01T07:38:44;19.25;81.67
79489;SHT31;68949;53.176;18.088;2023-08-01T07:41:10;19.22;81.63
79489;SHT31;68949;53.176;18.088;2023-08-01T07:43:37;19.17;81.60
79489;SHT31;68949;53.176;18.088;2023-08-01T07:46:03;19.07;81.60
79489;SHT31;68949;53.176;18.088;2023-08-01T07:48:30;19.00;81.74
79489;SHT31;68949;53.176;18.088;2023-08-01T07:50:57;18.99;81.83
79489;SHT31;68949;53.176;18.088;2023-08-01T07:53:23;18.97;81.87
79489;SHT31;68949;53.176;18.088;2023-08-01T07:55:51;18.93;81.80
79489;SHT31;68949;53.176;18.088;2023-08-01T07:58:19;18.89;81.90
79489;SHT31;68949;53.176;18.088;2023-08-01T08:00:46;18.85;82.07
79489;SHT31;68949;53.176;18.088;2023-08-01T08:03:13;18.83;82.16
79489;SHT31;68949;53.176;18.088;2023-08-01T08:05:40;18.83;82.18
79489;SHT31;68949;53.176;18.088;2023-08-01T08:08:07;18.82;82.19
79489;SHT31;68949;53.176;18.088;2023-08-01T08:10:35;18.84;82.26
79489;SHT31;68949;53.176;18.088;2023-08-01T08:13:02;18.81;82.28
79489;SHT31;68949;53.176;18.088;2023-08-01T08:15:29;18.82;82.32
79489;SHT31;68949;53.176;18.088;2023-08-01T08:18:01;18.82;82.49
79489;SHT31;68949;53.176;18.088;2023-08-01T08:20:31;18.79;82.47
79489;SHT31;68949;53.176;18.088;2023-08-01T08:23:11;18.77;82.48
79489;SHT31;68949;53.176;18.088;2023-08-01T08:25:42;18.77;82.48
79489;SHT31;68949;53.176;18.088;2023-08-01T08:28:16;18.77;82.47
79489;SHT31;68949;53.176;18.088;2023-08-01T08:30:56;18.78;82.64
79489;SHT31;68949;53.176;18.088;2023-08-01T08:33:24;18.77;82.68
79489;SHT31;68949;53.176;18.088;2023-08-01T08:35:54;18.75;82.70
79489;SHT31;68949;53.176;18.088;2023-08-01T08:38:22;18.76;82.77
79489;SHT31;68949;53.176;18.088;2023-08-01T08:43:38;18.82;82.81
79489;SHT31;68949;53.176;18.088;2023-08-01T08:46:08;18.82;82.85
79489;SHT31;68949;53.176;18.088;2023-08-01T08:48:35;18.86;82.81
79489;SHT31;68949;53.176;18.088;2023-08-01T08:51:04;18.92;82.85
79489;SHT31;68949;53.176;18.088;2023-08-01T08:53:33;18.98;82.70
79489;SHT31;68949;53.176;18.088;2023-08-01T08:56:02;18.98;82.56
79489;SHT31;68949;53.176;18.088;2023-08-01T08:58:29;19.06;82.67
79489;SHT31;68949;53.176;18.088;2023-08-01T09:00:59;19.14;82.50
79489;SHT31;68949;53.176;18.088;2023-08-01T09:03:28;19.24;82.47
79489;SHT31;68949;53.176;18.088;2023-08-01T09:06:07;19.28;82.29
79489;SHT31;68949;53.176;18.088;2023-08-01T09:08:41;19.34;82.30
79489;SHT31;68949;53.176;18.088;2023-08-01T09:11:45;19.44;82.13
79489;SHT31;68949;53.176;18.088;2023-08-01T09:14:16;19.63;82.26
79489;SHT31;68949;53.176;18.088;2023-08-01T09:16:45;19.83;81.97
79489;SHT31;68949;53.176;18.088;2023-08-01T09:19:17;19.96;81.65
79489;SHT31;68949;53.176;18.088;2023-08-01T09:21:46;20.02;81.31
79489;SHT31;68949;53.176;18.088;2023-08-01T09:24:15;20.06;81.05
79489;SHT31;68949;53.176;18.088;2023-08-01T09:26:47;20.08;80.64
79489;SHT31;68949;53.176;18.088;2023-08-01T09:29:19;20.18;80.88
79489;SHT31;68949;53.176;18.088;2023-08-01T09:31:46;20.22;80.49
79489;SHT31;68949;53.176;18.088;2023-08-01T09:34:22;20.27;80.44
79489;SHT31;68949;53.176;18.088;2023-08-01T09:36:57;20.34;80.32
79489;SHT31;68949;53.176;18.088;2023-08-01T09:39:26;20.31;80.02
79489;SHT31;68949;53.176;18.088;2023-08-01T09:44:25;20.30;79.78
79489;SHT31;68949;53.176;18.088;2023-08-01T09:46:57;20.27;79.76
79489;SHT31;68949;53.176;18.088;2023-08-01T09:49:27;20.25;79.76
79489;SHT31;68949;53.176;18.088;2023-08-01T09:51:55;20.23;79.82
79489;SHT31;68949;53.176;18.088;2023-08-01T09:54:23;20.24;79.64
79489;SHT31;68949;53.176;18.088;2023-08-01T09:56:52;20.25;79.62
79489;SHT31;68949;53.176;18.088;2023-08-01T09:59:22;20.24;79.43
79489;SHT31;68949;53.176;18.088;2023-08-01T10:01:51;20.25;79.36
79489;SHT31;68949;53.176;18.088;2023-08-01T10:04:21;20.21;79.15
79489;SHT31;68949;53.176;18.088;2023-08-01T10:06:59;20.20;79.17
79489;SHT31;68949;53.176;18.088;2023-08-01T10:09:38;20.20;78.84
79489;SHT31;68949;53.176;18.088;2023-08-01T10:12:07;20.19;79.01
79489;SHT31;68949;53.176;18.088;2023-08-01T10:14:36;20.17;79.11
79489;SHT31;68949;53.176;18.088;2023-08-01T10:17:04;20.07;78.92
79489;SHT31;68949;53.176;18.088;2023-08-01T10:19:32;19.96;78.82
79489;SHT31;68949;53.176;18.088;2023-08-01T10:22:01;19.85;79.01
79489;SHT31;68949;53.176;18.088;2023-08-01T10:24:29;19.78;79.25
79489;SHT31;68949;53.176;18.088;2023-08-01T10:26:57;19.79;79.23
79489;SHT31;68949;53.176;18.088;2023-08-01T10:29:36;19.78;79.33
79489;SHT31;68949;53.176;18.088;2023-08-01T10:32:03;19.69;79.65
79489;SHT31;68949;53.176;18.088;2023-08-01T10:34:33;19.65;80.14
79489;SHT31;68949;53.176;18.088;2023-08-01T10:37:02;19.66;80.15
79489;SHT31;68949;53.176;18.088;2023-08-01T10:39:30;19.67;80.13
79489;SHT31;68949;53.176;18.088;2023-08-01T10:42:01;19.73;80.31
79489;SHT31;68949;53.176;18.088;2023-08-01T10:44:31;19.86;80.48
79489;SHT31;68949;53.176;18.088;2023-08-01T10:47:01;20.06;80.41
79489;SHT31;68949;53.176;18.088;2023-08-01T10:49:34;20.25;80.36
79489;SHT31;68949;53.176;18.088;2023-08-01T10:54:46;20.62;80.12
79489;SHT31;68949;53.176;18.088;2023-08-01T10:57:16;20.81;79.82
79489;SHT31;68949;53.176;18.088;2023-08-01T10:59:44;20.85;79.25
79489;SHT31;68949;53.176;18.088;2023-08-01T11:02:11;20.84;79.41
79489;SHT31;68949;53.176;18.088;2023-08-01T11:04:38;20.74;79.32
79489;SHT31;68949;53.176;18.088;2023-08-01T11:07:04;20.64;79.44
79489;SHT31;68949;53.176;18.088;2023-08-01T11:09:31;20.55;79.58
79489;SHT31;68949;53.176;18.088;2023-08-01T11:11:58;20.47;79.77
79489;SHT31;68949;53.176;18.088;2023-08-01T11:14:28;20.42;79.95
79489;SHT31;68949;53.176;18.088;2023-08-01T11:16:56;20.35;80.08
79489;SHT31;68949;53.176;18.088;2023-08-01T11:19:24;20.30;80.43
79489;SHT31;68949;53.176;18.088;2023-08-01T11:21:54;20.25;80.58
79489;SHT31;68949;53.176;18.088;2023-08-01T11:24:26;20.22;80.74
79489;SHT31;68949;53.176;18.088;2023-08-01T11:26:53;20.23;80.88
79489;SHT31;68949;53.176;18.088;2023-08-01T11:29:20;20.20;80.74
79489;SHT31;68949;53.176;18.088;2023-08-01T11:31:55;20.20;80.90
79489;SHT31;68949;53.176;18.088;2023-08-01T11:34:25;20.19;80.98
79489;SHT31;68949;53.176;18.088;2023-08-01T11:36:52;20.15;80.98
79489;SHT31;68949;53.176;18.088;2023-08-01T11:39:20;20.09;81.16
79489;SHT31;68949;53.176;18.088;2023-08-01T11:41:48;20.04;81.47
79489;SHT31;68949;53.176;18.088;2023-08-01T11:44:15;19.96;81.71
79489;SHT31;68949;53.176;18.088;2023-08-01T11:46:42;19.86;81.88
79489;SHT31;68949;53.176;18.088;2023-08-01T11:49:13;19.79;82.10
79489;SHT31;68949;53.176;18.088;2023-08-01T11:51:42;19.74;82.27
79489;SHT31;68949;53.176;18.088;2023-08-01T11:54:11;19.72;82.44
79489;SHT31;68949;53.176;18.088;2023-08-01T11:56:40;19.74;82.55
79489;SHT31;68949;53.176;18.088;2023-08-01T11:59:09;19.72;82.66
79489;SHT31;68949;53.176;18.088;2023-08-01T12:01:45;19.74;82.82
79489;SHT31;68949;53.176;18.088;2023-08-01T12:04:26;19.80;82.77
79489;SHT31;68949;53.176;18.088;2023-08-01T12:06:54;19.83;82.61
79489;SHT31;68949;53.176;18.088;2023-08-01T12:09:22;19.80;82.61
79489;SHT31;68949;53.176;18.088;2023-08-01T12:11:57;19.87;82.79
79489;SHT31;68949;53.176;18.088;2023-08-01T12:14:26;19.96;82.62
79489;SHT31;68949;53.176;18.088;2023-08-01T12:16:54;20.02;82.58
79489;SHT31;68949;53.176;18.088;2023-08-01T12:19:21;20.07;82.40
79489;SHT31;68949;53.176;18.088;2023-08-01T12:21:48;20.15;82.54
79489;SHT31;68949;53.176;18.088;2023-08-01T12:24:16;20.26;82.72
79489;SHT31;68949;53.176;18.088;2023-08-01T12:26:43;20.35;82.51
79489;SHT31;68949;53.176;18.088;2023-08-01T12:29:10;20.45;82.32
79489;SHT31;68949;53.176;18.088;2023-08-01T12:31:37;20.55;82.42
79489;SHT31;68949;53.176;18.088;2023-08-01T12:34:04;20.66;82.17
79489;SHT31;68949;53.176;18.088;2023-08-01T12:36:31;20.72;81.80
79489;SHT31;68949;53.176;18.088;2023-08-01T12:38:58;20.77;81.95
79489;SHT31;68949;53.176;18.088;2023-08-01T12:41:24;20.81;81.79
79489;SHT31;68949;53.176;18.088;2023-08-01T12:43:51;20.81;81.69
79489;SHT31;68949;53.176;18.088;2023-08-01T12:46:18;20.79;81.77
79489;SHT31;68949;53.176;18.088;2023-08-01T12:48:45;20.80;81.72
79489;SHT31;68949;53.176;18.088;2023-08-01T12:51:13;20.80;81.72
79489;SHT31;68949;53.176;18.088;2023-08-01T12:53:41;20.83;81.69
79489;SHT31;68949;53.176;18.088;2023-08-01T12:56:08;20.84;81.50
79489;SHT31;68949;53.176;18.088;2023-08-01T12:58:35;20.83;81.41
79489;SHT31;68949;53.176;18.088;2023-08-01T13:01:02;20.84;81.58
79489;SHT31;68949;53.176;18.088;2023-08-01T13:03:30;20.90;81.39
79489;SHT31;68949;53.176;18.088;2023-08-01T13:05:57;20.89;81.49
79489;SHT31;68949;53.176;18.088;2023-08-01T13:08:24;20.91;81.43
79489;SHT31;68949;53.176;18.088;2023-08-01T13:10:51;20.96;81.48
79489;SHT31;68949;53.176;18.088;2023-08-01T13:13:18;20.97;81.36
79489;SHT31;68949;53.176;18.088;2023-08-01T13:15:45;20.99;81.34
79489;SHT31;68949;53.176;18.088;2023-08-01T13:18:12;20.98;81.01
79489;SHT31;68949;53.176;18.088;2023-08-01T13:20:40;20.95;80.83
79489;SHT31;68949;53.176;18.088;2023-08-01T13:23:07;20.92;81.02
79489;SHT31;68949;53.176;18.088;2023-08-01T13:25:34;20.91;81.12
79489;SHT31;68949;53.176;18.088;2023-08-01T13:28:02;20.97;81.21
79489;SHT31;68949;53.176;18.088;2023-08-01T13:30:28;21.08;81.02
79489;SHT31;68949;53.176;18.088;2023-08-01T13:32:55;21.17;80.93
79489;SHT31;68949;53.176;18.088;2023-08-01T13:35:22;21.18;80.81
79489;SHT31;68949;53.176;18.088;2023-08-01T13:37:49;21.16;80.32
79489;SHT31;68949;53.176;18.088;2023-08-01T13:40:15;21.12;80.45
79489;SHT31;68949;53.176;18.088;2023-08-01T13:42:42;21.09;80.53
79489;SHT31;68949;53.176;18.088;2023-08-01T13:45:09;21.09;80.63
79489;SHT31;68949;53.176;18.088;2023-08-01T13:47:36;21.11;80.59
79489;SHT31;68949;53.176;18.088;2023-08-01T13:50:03;21.14;80.78
79489;SHT31;68949;53.176;18.088;2023-08-01T13:52:30;21.18;80.88
79489;SHT31;68949;53.176;18.088;2023-08-01T13:54:57;21.22;80.92
79489;SHT31;68949;53.176;18.088;2023-08-01T13:57:26;21.18;80.90
79489;SHT31;68949;53.176;18.088;2023-08-01T13:59:53;21.13;81.13
79489;SHT31;68949;53.176;18.088;2023-08-01T14:02:22;21.09;81.16
79489;SHT31;68949;53.176;18.088;2023-08-01T14:04:50;21.09;81.29
79489;SHT31;68949;53.176;18.088;2023-08-01T14:07:22;21.06;81.39
79489;SHT31;68949;53.176;18.088;2023-08-01T14:09:51;21.07;81.57
79489;SHT31;68949;53.176;18.088;2023-08-01T14:12:23;21.08;81.65
79489;SHT31;68949;53.176;18.088;2023-08-01T14:14:53;21.17;81.77
79489;SHT31;68949;53.176;18.088;2023-08-01T14:17:20;21.28;81.94
79489;SHT31;68949;53.176;18.088;2023-08-01T14:19:50;21.40;81.91
79489;SHT31;68949;53.176;18.088;2023-08-01T14:22:17;21.42;81.53
79489;SHT31;68949;53.176;18.088;2023-08-01T14:24:44;21.38;81.60
79489;SHT31;68949;53.176;18.088;2023-08-01T14:27:12;21.31;81.48
79489;SHT31;68949;53.176;18.088;2023-08-01T14:29:39;21.19;81.74
79489;SHT31;68949;53.176;18.088;2023-08-01T14:32:07;21.04;81.59
79489;SHT31;68949;53.176;18.088;2023-08-01T14:34:34;20.82;81.34
79489;SHT31;68949;53.176;18.088;2023-08-01T14:37:03;20.51;81.27
79489;SHT31;68949;53.176;18.088;2023-08-01T14:39:34;20.11;80.95
79489;SHT31;68949;53.176;18.088;2023-08-01T14:42:01;19.89;81.36
79489;SHT31;68949;53.176;18.088;2023-08-01T14:44:28;19.82;81.66
79489;SHT31;68949;53.176;18.088;2023-08-01T14:46:54;19.74;82.02
79489;SHT31;68949;53.176;18.088;2023-08-01T14:49:21;19.70;82.49
79489;SHT31;68949;53.176;18.088;2023-08-01T14:51:48;19.75;82.58
79489;SHT31;68949;53.176;18.088;2023-08-01T14:54:17;19.83;82.96
79489;SHT31;68949;53.176;18.088;2023-08-01T14:56:44;19.97;83.04
79489;SHT31;68949;53.176;18.088;2023-08-01T14:59:11;20.10;83.10
79489;SHT31;68949;53.176;18.088;2023-08-01T15:01:37;20.20;83.02
79489;SHT31;68949;53.176;18.088;2023-08-01T15:04:04;20.22;82.83
79489;SHT31;68949;53.176;18.088;2023-08-01T15:06:31;20.19;82.96
79489;SHT31;68949;53.176;18.088;2023-08-01T15:08:58;20.22;82.69
79489;SHT31;68949;53.176;18.088;2023-08-01T15:11:25;20.24;82.78
79489;SHT31;68949;53.176;18.088;2023-08-01T15:13:51;20.29;82.66
79489;SHT31;68949;53.176;18.088;2023-08-01T15:16:18;20.32;82.44
79489;SHT31;68949;53.176;18.088;2023-08-01T15:18:45;20.28;82.07
79489;SHT31;68949;53.176;18.088;2023-08-01T15:21:12;20.23;81.54
79489;SHT31;68949;53.176;18.088;2023-08-01T15:23:38;20.09;81.64
79489;SHT31;68949;53.176;18.088;2023-08-01T15:26:05;20.06;81.98